Time;durP1;ratioP1;P1;durP2;ratioP2;P2;SDS_P1;SDS_P2;PMS_P1;PMS_P2;Temp;Humidity;BMP_temperature;BMP_pressure;BME280_temperature;BME280_humidity;BME280_pressure;Samples;Min_cycle;Max_cycle;Signal;HPM_P1;HPM_P2
2023/05/27 00:00:08;;;;;;;15.70;5.83;;;;;;;13.63;57.84;101094.03;5042157;28;20278;-77
2023/05/27 00:02:33;;;;;;;17.67;5.55;;;;;;;13.47;58.38;101091.06;5042833;28;20357;-78
2023/05/27 00:04:59;;;;;;;18.08;5.32;;;;;;;13.41;58.77;101095.63;5042525;28;20506;-78
2023/05/27 00:07:24;;;;;;;15.70;6.03;;;;;;;13.29;58.98;101089.44;5042569;28;20079;-77
2023/05/27 00:09:50;;;;;;;20.40;6.55;;;;;;;13.46;58.26;101091.31;5041979;28;20044;-77
2023/05/27 00:12:15;;;;;;;18.92;6.40;;;;;;;13.55;58.09;101095.31;5042665;28;20495;-78
2023/05/27 00:14:40;;;;;;;22.73;6.25;;;;;;;13.40;58.42;101093.16;5042474;28;20037;-77
2023/05/27 00:17:08;;;;;;;18.98;5.50;;;;;;;13.35;58.35;101093.91;5042496;28;20033;-78
2023/05/27 00:19:34;;;;;;;22.38;5.30;;;;;;;13.43;58.13;101084.44;5042036;28;20037;-78
2023/05/27 00:21:59;;;;;;;29.92;6.32;;;;;;;13.42;58.18;101083.59;5041973;28;20061;-77
2023/05/27 00:24:24;;;;;;;16.90;5.70;;;;;;;13.38;58.19;101087.09;5042195;28;20043;-77
2023/05/27 00:26:50;;;;;;;17.92;5.50;;;;;;;13.29;58.89;101084.78;5042549;28;20266;-78
2023/05/27 00:29:16;;;;;;;32.30;9.07;;;;;;;13.18;59.12;101092.00;5042305;28;20036;-78
2023/05/27 00:31:41;;;;;;;16.17;5.60;;;;;;;13.17;58.86;101089.53;5042051;28;20037;-78
2023/05/27 00:34:07;;;;;;;16.15;6.78;;;;;;;13.23;58.95;101082.22;5042296;28;20036;-78
2023/05/27 00:36:32;;;;;;;20.70;4.47;;;;;;;13.22;59.47;101091.53;5042456;28;20049;-78
2023/05/27 00:38:58;;;;;;;13.38;5.43;;;;;;;13.12;59.14;101082.03;5041988;28;20568;-78
2023/05/27 00:41:24;;;;;;;21.25;6.53;;;;;;;13.16;59.21;101082.41;5042330;28;20511;-78
2023/05/27 00:43:49;;;;;;;21.10;7.00;;;;;;;13.09;59.42;101085.31;5040986;28;20585;-78
2023/05/27 00:46:15;;;;;;;16.10;5.18;;;;;;;13.01;59.95;101082.97;5042241;28;20043;-78
2023/05/27 00:48:40;;;;;;;14.18;5.90;;;;;;;12.99;59.63;101085.97;5041570;28;20497;-78
2023/05/27 00:51:05;;;;;;;18.17;5.75;;;;;;;13.05;59.63;101086.88;5042040;28;20037;-79
2023/05/27 00:53:42;;;;;;;26.58;7.32;;;;;;;12.81;60.22;101085.09;5041919;28;20028;-78
2023/05/27 00:56:12;;;;;;;15.65;5.47;;;;;;;12.75;60.51;101082.56;5041783;28;20033;-77
2023/05/27 00:58:38;;;;;;;17.33;5.13;;;;;;;12.71;60.47;101085.75;5041467;28;20588;-78
2023/05/27 01:01:04;;;;;;;15.52;6.05;;;;;;;12.71;61.08;101083.03;5042579;28;20032;-78
2023/05/27 01:03:34;;;;;;;16.08;5.85;;;;;;;12.61;60.90;101086.41;5041827;28;20668;-77
2023/05/27 01:06:44;;;;;;;18.60;5.90;;;;;;;12.41;61.65;101083.31;5041203;28;20056;-77
2023/05/27 01:09:16;;;;;;;13.82;6.50;;;;;;;12.35;62.50;101080.47;5044792;28;20049;-78
2023/05/27 01:11:48;;;;;;;20.00;6.32;;;;;;;12.44;61.93;101083.66;5045408;28;20091;-78
2023/05/27 01:14:15;;;;;;;16.60;5.82;;;;;;;12.28;62.10;101085.28;5045739;28;20033;-78
2023/05/27 01:16:46;;;;;;;18.70;6.78;;;;;;;12.35;61.74;101083.22;5045535;28;20502;-77
2023/05/27 01:19:23;;;;;;;17.23;6.40;;;;;;;12.35;61.48;101085.13;5045124;28;20041;-78
2023/05/27 01:21:51;;;;;;;16.92;6.18;;;;;;;12.22;62.45;101081.63;5045077;28;20328;-78
2023/05/27 01:24:17;;;;;;;21.92;6.88;;;;;;;12.17;62.92;101078.78;5045414;28;20056;-78
2023/05/27 01:26:42;;;;;;;25.77;5.82;;;;;;;12.14;62.57;101073.81;5045453;28;20039;-78
2023/05/27 01:29:07;;;;;;;13.77;4.87;;;;;;;12.07;63.09;101071.16;5045046;28;20342;-78
2023/05/27 01:31:46;;;;;;;21.73;5.93;;;;;;;12.22;62.45;101072.59;5045361;28;20258;-78
2023/05/27 01:34:18;;;;;;;16.38;5.90;;;;;;;12.22;62.28;101072.59;5045528;28;20262;-78
2023/05/27 01:36:48;;;;;;;18.77;8.60;;;;;;;12.23;62.41;101077.78;5045068;28;20156;-78
2023/05/27 01:39:15;;;;;;;16.33;5.28;;;;;;;12.17;63.14;101067.00;5044942;28;20082;-78
2023/05/27 01:41:42;;;;;;;15.15;6.22;;;;;;;12.25;62.60;101075.66;5045192;28;20029;-78
2023/05/27 01:44:09;;;;;;;16.05;5.50;;;;;;;12.38;62.06;101073.69;5045055;28;20039;-78
2023/05/27 01:46:35;;;;;;;16.20;5.53;;;;;;;12.37;62.21;101067.41;5044990;28;20033;-78
2023/05/27 01:49:00;;;;;;;28.20;7.78;;;;;;;12.37;62.47;101072.03;5044763;28;20052;-78
2023/05/27 01:51:25;;;;;;;18.07;5.43;;;;;;;12.36;62.23;101067.66;5045226;28;20029;-78
2023/05/27 01:53:51;;;;;;;25.77;6.90;;;;;;;12.33;62.11;101068.97;5045085;28;20269;-78
2023/05/27 01:56:16;;;;;;;23.47;7.20;;;;;;;12.37;61.93;101066.56;5045225;28;20821;-78
2023/05/27 01:58:41;;;;;;;15.50;5.72;;;;;;;12.49;61.40;101061.03;5044395;28;20277;-78
2023/05/27 02:01:06;;;;;;;18.13;7.90;;;;;;;12.51;61.35;101063.53;5045102;28;20036;-77
2023/05/27 02:03:32;;;;;;;23.90;7.30;;;;;;;12.43;61.79;101062.84;5044868;28;20388;-78
2023/05/27 02:05:57;;;;;;;20.43;5.50;;;;;;;12.18;63.03;101060.47;5044976;28;20392;-78
2023/05/27 02:08:22;;;;;;;22.77;6.27;;;;;;;12.27;62.45;101061.72;5044784;28;20805;-78
2023/05/27 02:10:48;;;;;;;28.70;7.20;;;;;;;12.30;62.30;101060.41;5044894;28;20254;-77
2023/05/27 02:13:13;;;;;;;18.55;6.60;;;;;;;12.16;63.15;101055.25;5044773;28;20028;-77
2023/05/27 02:15:38;;;;;;;19.08;5.85;;;;;;;12.18;63.00;101058.56;5044711;28;20473;-77
2023/05/27 02:18:05;;;;;;;23.67;8.03;;;;;;;12.12;62.92;101056.81;5043268;28;20036;-77
2023/05/27 02:20:30;;;;;;;17.65;6.22;;;;;;;12.06;63.24;101046.81;5043908;28;20293;-78
2023/05/27 02:22:55;;;;;;;21.13;8.10;;;;;;;12.06;63.27;101057.75;5044650;28;20489;-78
2023/05/27 02:25:20;;;;;;;18.87;6.73;;;;;;;12.13;62.87;101051.09;5044435;28;20328;-78
2023/05/27 02:27:50;;;;;;;21.93;6.47;;;;;;;12.05;63.27;101050.59;5044084;28;20316;-78
2023/05/27 02:30:15;;;;;;;21.63;6.53;;;;;;;12.01;63.64;101053.84;5044177;28;20265;-78
2023/05/27 02:32:41;;;;;;;20.20;7.68;;;;;;;11.99;63.33;101057.88;5044088;28;20071;-77
2023/05/27 02:35:07;;;;;;;18.58;6.53;;;;;;;11.90;63.62;101057.41;5044669;28;20025;-77
2023/05/27 02:37:32;;;;;;;22.20;7.45;;;;;;;11.82;63.88;101057.84;5042875;28;20033;-78
2023/05/27 02:39:58;;;;;;;23.70;7.40;;;;;;;11.97;63.33;101057.28;5043866;28;20469;-78
2023/05/27 02:42:23;;;;;;;14.45;5.95;;;;;;;11.87;63.95;101058.75;5044043;28;20037;-77
2023/05/27 02:44:48;;;;;;;16.67;5.87;;;;;;;11.83;64.35;101062.22;5043816;28;20418;-77
2023/05/27 02:47:14;;;;;;;21.50;7.60;;;;;;;11.83;64.29;101059.47;5044176;28;20341;-77
2023/05/27 02:49:39;;;;;;;25.90;5.97;;;;;;;11.95;63.61;101059.44;5043540;28;20041;-77
2023/05/27 02:52:05;;;;;;;27.15;8.35;;;;;;;11.90;63.51;101054.69;5043819;28;20269;-77
2023/05/27 02:54:30;;;;;;;15.88;7.90;;;;;;;11.78;63.85;101052.00;5043863;28;20074;-76
2023/05/27 02:56:55;;;;;;;22.63;7.35;;;;;;;11.70;64.61;101044.16;5043915;28;20037;-77
2023/05/27 02:59:21;;;;;;;18.93;7.57;;;;;;;11.69;64.95;101057.03;5043567;28;20467;-77
2023/05/27 03:01:46;;;;;;;18.27;5.80;;;;;;;11.72;64.68;101044.75;5042583;28;20250;-77
2023/05/27 03:04:11;;;;;;;21.23;7.03;;;;;;;11.69;64.85;101035.16;5043910;28;20266;-76
2023/05/27 03:06:36;;;;;;;15.83;6.83;;;;;;;11.64;64.91;101041.34;5043602;28;20636;-77
2023/05/27 03:09:03;;;;;;;15.13;6.07;;;;;;;11.74;64.56;101046.19;5043505;28;20262;-77
2023/05/27 03:11:28;;;;;;;24.77;7.07;;;;;;;11.78;64.14;101039.16;5043580;28;20033;-77
2023/05/27 03:13:54;;;;;;;20.00;7.40;;;;;;;11.70;64.48;101036.81;5043533;28;20033;-77
2023/05/27 03:16:19;;;;;;;18.97;8.33;;;;;;;11.68;64.62;101044.41;5043712;28;20262;-77
2023/05/27 03:18:45;;;;;;;17.65;7.63;;;;;;;11.60;64.96;101047.53;5043027;28;20304;-77
2023/05/27 03:21:10;;;;;;;18.02;7.60;;;;;;;11.45;65.60;101046.13;5043264;28;20375;-76
2023/05/27 03:23:36;;;;;;;17.10;6.60;;;;;;;11.58;64.88;101039.56;5043608;28;20518;-77
2023/05/27 03:26:01;;;;;;;21.83;5.43;;;;;;;11.53;65.07;101037.56;5043714;28;20088;-77
2023/05/27 03:28:26;;;;;;;17.77;7.10;;;;;;;11.50;65.47;101037.19;5042517;28;20266;-77
2023/05/27 03:30:55;;;;;;;18.10;6.83;;;;;;;11.58;64.66;101042.31;5043641;28;20297;-77
2023/05/27 03:33:21;;;;;;;21.83;6.70;;;;;;;11.55;65.07;101043.59;5043744;28;20269;-77
2023/05/27 03:35:47;;;;;;;21.05;7.68;;;;;;;11.45;65.37;101029.75;5043102;28;20098;-77
2023/05/27 03:38:12;;;;;;;21.83;6.67;;;;;;;11.59;65.00;101037.69;5042797;28;20451;-77
2023/05/27 03:40:37;;;;;;;21.70;7.13;;;;;;;11.55;64.86;101038.13;5043135;28;20821;-77
2023/05/27 03:43:02;;;;;;;17.17;6.53;;;;;;;11.49;65.57;101047.28;5043478;28;21202;-77
2023/05/27 03:45:28;;;;;;;23.37;6.50;;;;;;;11.63;65.00;101036.13;5043163;28;20289;-77
2023/05/27 03:47:53;;;;;;;34.47;8.33;;;;;;;11.64;64.77;101035.88;5042792;28;20289;-77
2023/05/27 03:50:18;;;;;;;25.38;6.43;;;;;;;11.59;65.01;101032.22;5043415;28;20277;-77
2023/05/27 03:52:43;;;;;;;20.80;8.43;;;;;;;11.59;65.10;101033.06;5043245;28;20380;-77
2023/05/27 03:55:09;;;;;;;17.27;7.25;;;;;;;11.62;65.18;101029.00;5043376;28;20250;-78
2023/05/27 03:57:35;;;;;;;20.05;7.70;;;;;;;11.56;65.30;101031.63;5042964;28;20017;-78
2023/05/27 04:00:00;;;;;;;21.35;7.25;;;;;;;11.56;65.03;101026.16;5041255;28;20041;-77
2023/05/27 04:02:25;;;;;;;20.75;7.07;;;;;;;11.60;65.24;101021.03;5043279;28;20108;-77
2023/05/27 04:04:50;;;;;;;16.33;6.33;;;;;;;11.56;65.26;101025.31;5042999;28;20041;-77
2023/05/27 04:07:17;;;;;;;17.97;7.97;;;;;;;11.30;66.54;101017.41;5042995;28;20289;-77
2023/05/27 04:09:43;;;;;;;26.77;9.38;;;;;;;11.25;66.41;101020.03;5042460;28;20262;-77
2023/05/27 04:12:08;;;;;;;28.07;9.07;;;;;;;11.52;65.47;101010.50;5042466;28;20051;-77
2023/05/27 04:14:33;;;;;;;20.70;7.50;;;;;;;11.68;65.01;101017.09;5042671;28;20692;-77
2023/05/27 04:16:59;;;;;;;22.03;6.53;;;;;;;11.73;64.66;101016.38;5043102;28;20021;-77
2023/05/27 04:19:24;;;;;;;16.63;6.87;;;;;;;11.80;64.62;101006.13;5042459;28;20513;-77
2023/05/27 04:21:49;;;;;;;18.90;7.87;;;;;;;11.77;64.49;101010.22;5042932;28;20282;-77
2023/05/27 04:24:14;;;;;;;13.57;6.63;;;;;;;11.64;65.24;101010.47;5042775;28;20281;-77
2023/05/27 04:26:40;;;;;;;21.27;7.70;;;;;;;11.61;65.41;101005.50;5042285;28;20123;-77
2023/05/27 04:29:09;;;;;;;17.23;5.90;;;;;;;11.67;65.52;101010.00;5042442;28;20147;-77
2023/05/27 04:31:36;;;;;;;20.48;6.90;;;;;;;11.63;65.93;101011.53;5042263;28;20037;-77
2023/05/27 04:34:02;;;;;;;16.10;7.15;;;;;;;11.63;65.65;101008.81;5042811;28;20037;-77
2023/05/27 04:36:32;;;;;;;19.92;6.10;;;;;;;11.79;65.04;101016.25;5042744;28;20421;-77
2023/05/27 04:38:59;;;;;;;22.38;7.55;;;;;;;11.73;65.75;101017.22;5041025;28;20029;-77
2023/05/27 04:41:27;;;;;;;29.90;8.52;;;;;;;11.72;65.66;101022.91;5044081;28;20041;-77
2023/05/27 04:43:52;;;;;;;25.25;7.72;;;;;;;11.65;65.83;101020.31;5046703;28;20040;-77
2023/05/27 04:46:17;;;;;;;22.50;7.93;;;;;;;11.81;65.13;101015.16;5046611;28;20037;-77
2023/05/27 04:48:44;;;;;;;20.02;7.25;;;;;;;11.91;64.60;101021.69;5046247;28;20400;-77
2023/05/27 04:51:09;;;;;;;21.45;7.85;;;;;;;11.92;64.36;101022.50;5046759;28;20501;-78
2023/05/27 04:53:35;;;;;;;25.30;6.95;;;;;;;11.91;64.86;101023.56;5046823;28;20029;-76
2023/05/27 04:56:00;;;;;;;20.93;7.63;;;;;;;11.84;65.25;101026.44;5046610;28;20124;-77
2023/05/27 04:58:26;;;;;;;24.20;7.70;;;;;;;11.81;65.11;101023.38;5045769;28;20262;-77
2023/05/27 05:00:53;;;;;;;18.15;6.45;;;;;;;11.84;65.03;101020.16;5046668;28;20051;-77
2023/05/27 05:03:22;;;;;;;17.75;6.55;;;;;;;11.82;65.34;101025.03;5046468;28;20035;-77
2023/05/27 05:05:52;;;;;;;31.55;8.00;;;;;;;11.96;64.79;101026.41;5046284;28;20044;-77
2023/05/27 05:08:18;;;;;;;24.38;6.75;;;;;;;12.05;64.28;101026.00;5046110;28;20541;-77
2023/05/27 05:10:46;;;;;;;17.48;7.70;;;;;;;12.12;64.69;101034.94;5046375;28;20435;-76
2023/05/27 05:13:12;;;;;;;18.40;7.25;;;;;;;12.08;64.12;101026.34;5046207;28;20441;-77
2023/05/27 05:15:37;;;;;;;15.82;6.88;;;;;;;11.92;65.29;101022.50;5045910;28;20056;-77
2023/05/27 05:18:02;;;;;;;14.52;7.00;;;;;;;12.03;64.64;101020.78;5045857;28;20115;-77
2023/05/27 05:20:28;;;;;;;18.35;6.80;;;;;;;12.00;65.06;101019.38;5045945;28;20410;-77
2023/05/27 05:22:53;;;;;;;18.50;6.80;;;;;;;12.02;65.23;101017.22;5045703;28;20506;-77
2023/05/27 05:25:18;;;;;;;19.40;8.60;;;;;;;11.94;65.65;101020.34;5045744;28;20319;-77
2023/05/27 05:27:43;;;;;;;17.58;8.05;;;;;;;11.93;66.02;101013.22;5046198;28;20265;-77
2023/05/27 05:30:09;;;;;;;24.93;8.60;;;;;;;11.84;66.31;100998.31;5045640;28;20486;-77
2023/05/27 05:32:34;;;;;;;22.73;7.93;;;;;;;12.01;65.51;101015.56;5045760;28;20257;-77
2023/05/27 05:34:59;;;;;;;17.23;7.40;;;;;;;12.10;65.21;101012.47;5045861;28;20053;-78
2023/05/27 05:37:25;;;;;;;18.02;7.72;;;;;;;12.29;64.96;101009.53;5044564;28;20132;-77
2023/05/27 05:39:50;;;;;;;20.67;7.13;;;;;;;12.30;65.34;101020.25;5045227;28;20421;-77
2023/05/27 05:42:16;;;;;;;17.15;6.70;;;;;;;12.34;65.06;101024.16;5045798;28;20277;-77
2023/05/27 05:44:41;;;;;;;23.20;8.18;;;;;;;12.31;65.15;101029.25;5045539;28;20033;-78
2023/05/27 05:47:06;;;;;;;23.67;8.85;;;;;;;12.24;65.47;101019.28;5045428;28;20127;-77
2023/05/27 05:49:31;;;;;;;28.87;8.07;;;;;;;12.00;66.25;101013.91;5045258;28;20076;-77
2023/05/27 05:51:57;;;;;;;18.37;6.33;;;;;;;12.23;65.83;101017.66;5045696;28;20300;-77
2023/05/27 05:54:22;;;;;;;26.80;6.93;;;;;;;12.29;65.48;101010.38;5045680;28;20265;-76
2023/05/27 05:56:47;;;;;;;19.40;8.10;;;;;;;12.23;65.87;101006.72;5045360;28;20274;-77
2023/05/27 05:59:12;;;;;;;20.20;8.70;;;;;;;12.20;65.86;101006.38;5045369;28;20337;-77
2023/05/27 06:01:38;;;;;;;26.60;8.47;;;;;;;12.13;66.37;101012.00;5045310;28;20695;-77
2023/05/27 06:04:04;;;;;;;18.20;7.47;;;;;;;12.24;66.19;101005.63;5045420;28;20262;-77
2023/05/27 06:06:30;;;;;;;19.67;7.13;;;;;;;12.22;66.52;100996.88;5045208;28;20286;-77
2023/05/27 06:08:55;;;;;;;16.27;7.35;;;;;;;12.35;66.51;101008.53;5045048;28;20040;-78
2023/05/27 06:11:21;;;;;;;16.08;7.18;;;;;;;12.44;66.22;100998.88;5043849;28;20401;-77
2023/05/27 06:13:46;;;;;;;18.25;7.03;;;;;;;12.52;66.35;100999.53;5045153;28;20095;-77
2023/05/27 06:16:12;;;;;;;19.63;6.43;;;;;;;12.58;66.14;101002.13;5045279;28;20031;-77
2023/05/27 06:18:37;;;;;;;18.53;6.67;;;;;;;12.79;65.66;100997.00;5044405;28;20122;-77
2023/05/27 06:21:03;;;;;;;21.15;6.82;;;;;;;12.97;64.55;100997.78;5045043;28;20792;-77
2023/05/27 06:23:28;;;;;;;26.15;8.93;;;;;;;12.89;64.80;100999.06;5044603;28;20033;-77
2023/05/27 06:25:53;;;;;;;18.25;8.07;;;;;;;13.04;64.35;101008.56;5044709;28;20171;-76
2023/05/27 06:28:18;;;;;;;21.20;7.33;;;;;;;13.02;64.59;101003.34;5044250;28;20036;-76
2023/05/27 06:30:44;;;;;;;23.40;7.93;;;;;;;13.13;64.01;101003.47;5044664;28;20315;-77
2023/05/27 06:33:09;;;;;;;15.65;6.90;;;;;;;13.21;64.09;101003.06;5044882;28;20269;-77
2023/05/27 06:35:35;;;;;;;21.83;8.23;;;;;;;13.15;64.38;101004.91;5044676;28;20521;-77
2023/05/27 06:38:01;;;;;;;24.55;7.53;;;;;;;13.22;64.44;100993.75;5044097;28;20033;-77
2023/05/27 06:40:26;;;;;;;24.42;8.23;;;;;;;13.28;64.10;101002.88;5044574;28;20494;-76
2023/05/27 06:42:53;;;;;;;15.37;5.93;;;;;;;13.33;63.93;101002.94;5044632;28;20134;-76
2023/05/27 06:45:18;;;;;;;20.90;7.30;;;;;;;13.38;63.71;100994.78;5043627;28;20731;-77
2023/05/27 06:47:43;;;;;;;17.05;7.50;;;;;;;13.40;63.88;100992.63;5043678;28;20057;-77
2023/05/27 06:50:09;;;;;;;20.17;6.87;;;;;;;13.47;63.30;100994.34;5043777;28;20041;-77
2023/05/27 06:52:35;;;;;;;21.17;7.70;;;;;;;13.51;63.32;100993.59;5044190;28;20289;-77
2023/05/27 06:55:00;;;;;;;26.63;9.23;;;;;;;13.52;63.16;100987.03;5043925;28;20142;-76
2023/05/27 06:57:25;;;;;;;21.20;8.18;;;;;;;13.58;62.96;100987.97;5043883;28;20762;-77
2023/05/27 06:59:50;;;;;;;25.13;8.93;;;;;;;13.33;64.10;101000.22;5043729;28;20509;-83
2023/05/27 07:02:16;;;;;;;21.30;6.53;;;;;;;13.50;63.67;100982.91;5045410;28;20611;-83
2023/05/27 07:04:41;;;;;;;16.00;8.13;;;;;;;13.62;63.33;100980.88;5044834;28;20383;-83
2023/05/27 07:07:06;;;;;;;19.52;7.95;;;;;;;13.64;62.86;100978.72;5044955;28;20266;-83
2023/05/27 07:09:32;;;;;;;23.45;8.00;;;;;;;13.68;63.00;100986.41;5044616;28;20821;-83
2023/05/27 07:11:57;;;;;;;17.73;7.40;;;;;;;13.80;62.33;100984.38;5044031;28;20033;-84
2023/05/27 07:14:22;;;;;;;28.42;7.75;;;;;;;13.91;62.08;100976.28;5045191;28;20729;-84
2023/05/27 07:16:48;;;;;;;20.33;8.75;;;;;;;13.87;62.18;100974.03;5045145;28;20536;-83
2023/05/27 07:19:13;;;;;;;17.37;7.13;;;;;;;13.92;63.42;100970.53;5043629;28;20546;-84
2023/05/27 07:21:38;;;;;;;16.00;7.18;;;;;;;14.00;62.64;100970.06;5044710;28;20277;-83
2023/05/27 07:24:04;;;;;;;24.10;9.15;;;;;;;14.04;62.56;100969.53;5044202;28;20016;-78
2023/05/27 07:26:30;;;;;;;18.60;9.32;;;;;;;14.03;62.51;100962.41;5043282;28;20111;-77
2023/05/27 07:28:58;;;;;;;23.15;8.00;;;;;;;13.95;63.19;100967.25;5042542;28;20051;-77
2023/05/27 07:31:23;;;;;;;15.35;7.13;;;;;;;13.96;63.24;100968.09;5043377;28;20033;-78
2023/05/27 07:33:48;;;;;;;29.87;9.47;;;;;;;14.13;62.29;100962.50;5043409;28;20040;-78
2023/05/27 07:36:13;;;;;;;20.97;8.20;;;;;;;14.23;61.90;100961.78;5042075;28;20278;-78
2023/05/27 07:38:39;;;;;;;25.23;8.93;;;;;;;14.19;62.29;100956.00;5041463;28;20254;-77
2023/05/27 07:41:04;;;;;;;17.92;8.45;;;;;;;14.23;62.05;100945.31;5041314;28;20270;-77
2023/05/27 07:43:29;;;;;;;18.33;7.63;;;;;;;14.27;62.00;100956.59;5042653;28;20267;-78
2023/05/27 07:45:55;;;;;;;22.20;8.10;;;;;;;14.26;62.38;100950.28;5043181;28;20508;-78
2023/05/27 07:48:20;;;;;;;19.50;6.97;;;;;;;14.34;62.04;100952.53;5042664;28;20257;-78
2023/05/27 07:50:45;;;;;;;23.23;7.22;;;;;;;14.44;61.84;100956.47;5042999;28;20254;-77
2023/05/27 07:53:11;;;;;;;22.02;8.10;;;;;;;14.41;62.80;100951.50;5043269;28;20031;-77
2023/05/27 07:55:36;;;;;;;21.80;7.30;;;;;;;14.50;61.91;100960.91;5043469;28;20043;-77
2023/05/27 07:58:01;;;;;;;59.57;9.17;;;;;;;14.59;61.79;100951.09;5043313;28;20332;-77
2023/05/27 08:00:26;;;;;;;35.25;8.68;;;;;;;14.59;62.70;100948.34;5043137;28;20258;-78
2023/05/27 08:02:52;;;;;;;41.70;7.93;;;;;;;14.69;61.83;100947.59;5043362;28;20052;-77
2023/05/27 08:05:17;;;;;;;62.07;11.33;;;;;;;14.80;61.59;100939.44;5043300;28;20278;-77
2023/05/27 08:07:42;;;;;;;49.40;10.20;;;;;;;14.85;61.68;100944.97;5043136;28;20258;-76
2023/05/27 08:10:08;;;;;;;24.90;7.90;;;;;;;14.85;61.72;100936.75;5042841;28;20270;-77
2023/05/27 08:12:33;;;;;;;20.98;6.47;;;;;;;14.98;61.44;100935.44;5042734;28;20746;-77
2023/05/27 08:14:59;;;;;;;29.65;7.90;;;;;;;15.09;61.33;100932.78;5043594;28;20029;-76
2023/05/27 08:17:24;;;;;;;37.40;9.35;;;;;;;15.13;61.33;100931.16;5046467;28;20044;-74
2023/05/27 08:19:49;;;;;;;37.92;7.68;;;;;;;15.18;61.57;100922.91;5046817;28;20033;-74
2023/05/27 08:22:15;;;;;;;19.92;6.70;;;;;;;15.20;61.40;100915.22;5046876;28;20061;-74
2023/05/27 08:24:40;;;;;;;18.50;6.83;;;;;;;15.37;60.46;100911.47;5045698;28;20106;-74
2023/05/27 08:27:11;;;;;;;23.93;8.30;;;;;;;15.46;60.31;100903.53;5047202;28;20775;-73
2023/05/27 08:29:36;;;;;;;24.00;6.95;;;;;;;15.50;60.08;100908.19;5046454;28;20266;-74
2023/05/27 08:32:01;;;;;;;25.43;8.13;;;;;;;15.57;59.91;100902.44;5047068;28;20040;-74
2023/05/27 08:34:27;;;;;;;20.92;7.63;;;;;;;15.67;59.94;100907.16;5047047;28;20066;-73
2023/05/27 08:36:52;;;;;;;19.45;5.85;;;;;;;15.79;59.71;100900.56;5046866;28;20530;-73
2023/05/27 08:39:18;;;;;;;16.55;6.95;;;;;;;15.90;59.35;100898.66;5046678;28;20123;-73
2023/05/27 08:41:43;;;;;;;20.83;7.30;;;;;;;15.87;58.95;100894.53;5046695;28;20045;-76
2023/05/27 08:44:08;;;;;;;23.90;9.10;;;;;;;15.86;58.60;100896.44;5046773;28;20405;-75
2023/05/27 08:46:36;;;;;;;19.85;7.43;;;;;;;16.01;58.31;100897.56;5046373;28;20064;-76
2023/05/27 08:49:01;;;;;;;38.70;7.88;;;;;;;16.02;59.28;100887.44;5045086;28;20024;-78
2023/05/27 08:51:27;;;;;;;19.50;6.88;;;;;;;16.14;59.25;100890.72;5046608;28;20044;-77
2023/05/27 08:53:52;;;;;;;23.55;6.93;;;;;;;16.33;58.66;100892.94;5046435;28;20025;-79
2023/05/27 08:56:22;;;;;;;38.83;8.07;;;;;;;16.49;58.02;100890.16;5047116;28;20032;-91
2023/05/27 08:58:48;;;;;;;21.45;6.55;;;;;;;16.59;57.13;100884.63;5047037;28;20127;-86
2023/05/27 09:01:16;;;;;;;31.83;7.43;;;;;;;16.62;57.04;100884.06;5048113;28;20124;-86
2023/05/27 09:03:41;;;;;;;25.30;6.68;;;;;;;16.74;57.34;100874.69;5046226;28;20114;-80
2023/05/27 09:06:07;;;;;;;21.08;6.28;;;;;;;16.90;57.24;100870.78;5046534;28;20116;-79
2023/05/27 09:08:32;;;;;;;26.02;7.03;;;;;;;16.92;56.95;100863.06;5043678;28;20064;-79
2023/05/27 09:10:57;;;;;;;37.47;9.05;;;;;;;17.03;57.09;100860.25;5045715;28;20350;-78
2023/05/27 09:13:29;;;;;;;256.37;32.07;;;;;;;17.18;56.26;100853.91;5045640;28;20139;-76
2023/05/27 09:16:03;;;;;;;342.25;44.45;;;;;;;17.11;55.33;100858.84;5045988;28;20254;-75
2023/05/27 09:18:29;;;;;;;;;;;;;;;17.18;54.51;100847.56;5045889;28;20056;-76
2023/05/27 09:20:55;;;;;;;304.67;31.90;;;;;;;17.19;55.17;100851.97;5045862;28;19931;-76
2023/05/27 09:23:21;;;;;;;125.63;18.67;;;;;;;17.38;56.93;100841.94;5045911;28;20036;-75
2023/05/27 09:25:46;;;;;;;186.10;23.30;;;;;;;17.49;55.92;100844.66;5046196;28;20041;-75
2023/05/27 09:28:12;;;;;;;352.35;39.35;;;;;;;17.65;54.30;100839.00;5045316;28;20262;-75
2023/05/27 09:30:37;;;;;;;67.72;9.50;;;;;;;17.70;53.81;100838.97;5045440;28;20025;-75
2023/05/27 09:33:03;;;;;;;186.13;24.90;;;;;;;17.88;53.55;100831.13;5046215;28;20060;-75
2023/05/27 09:35:28;;;;;;;78.38;12.55;;;;;;;17.90;53.13;100837.19;5045649;28;20623;-76
2023/05/27 09:37:53;;;;;;;42.45;8.65;;;;;;;17.72;52.53;100837.56;5045409;28;20040;-77
2023/05/27 09:40:19;;;;;;;95.00;10.03;;;;;;;18.00;53.75;100836.28;5045888;28;20033;-73
2023/05/27 09:42:48;;;;;;;914.15;152.48;;;;;;;18.06;50.52;100835.13;5045457;28;20739;-77
2023/05/27 09:45:16;;;;;;;345.20;38.47;;;;;;;18.26;51.25;100834.13;5045380;28;20052;-77
2023/05/27 09:47:52;;;;;;;53.22;10.57;;;;;;;18.40;51.04;100831.50;5045290;28;20466;-76
2023/05/27 09:50:18;;;;;;;20.45;5.15;;;;;;;18.52;50.14;100830.28;5045621;28;20029;-77
2023/05/27 09:52:45;;;;;;;36.95;6.10;;;;;;;18.63;49.23;100819.94;5045436;28;20039;-76
2023/05/27 09:55:12;;;;;;;21.58;6.25;;;;;;;18.74;49.23;100817.88;5045718;28;20029;-74
2023/05/27 09:57:38;;;;;;;17.23;5.70;;;;;;;18.78;47.84;100814.22;5045457;28;20037;-78
2023/05/27 10:00:16;;;;;;;26.73;5.90;;;;;;;18.90;49.07;100813.81;5043528;28;20033;-78
2023/05/27 10:02:44;;;;;;;17.17;4.88;;;;;;;19.06;49.41;100798.97;5045396;28;20116;-74
2023/05/27 10:05:12;;;;;;;24.42;6.93;;;;;;;19.18;49.74;100802.13;5043724;28;20032;-75
2023/05/27 10:07:38;;;;;;;32.30;5.45;;;;;;;19.16;47.38;100798.03;5045246;28;20041;-74
2023/05/27 10:10:09;;;;;;;17.00;8.73;;;;;;;19.25;47.42;100790.72;5044317;28;20033;-76
2023/05/27 10:12:36;;;;;;;20.30;8.48;;;;;;;19.34;48.35;100793.63;5045188;28;20036;-77
2023/05/27 10:15:02;;;;;;;25.85;10.25;;;;;;;19.39;48.06;100796.31;5044939;28;20390;-76
2023/05/27 10:17:29;;;;;;;17.27;5.93;;;;;;;19.42;46.32;100792.97;5044928;28;20033;-77
2023/05/27 10:19:56;;;;;;;135.07;21.92;;;;;;;19.34;47.74;100796.41;5045033;28;20045;-75
2023/05/27 10:22:22;;;;;;;17.50;5.25;;;;;;;19.39;47.14;100789.94;5044996;28;20441;-79
2023/05/27 10:24:48;;;;;;;14.13;4.70;;;;;;;19.60;47.60;100790.47;5045277;28;20028;-75
2023/05/27 10:27:13;;;;;;;24.30;4.97;;;;;;;19.73;48.02;100788.06;5044577;28;20045;-74
2023/05/27 10:29:39;;;;;;;28.10;7.18;;;;;;;19.82;48.13;100786.22;5044886;28;20041;-74
2023/05/27 10:32:04;;;;;;;30.48;7.35;;;;;;;19.80;48.13;100794.84;5045134;28;20838;-74
2023/05/27 10:34:37;;;;;;;16.58;4.78;;;;;;;19.92;47.65;100788.81;5044753;28;20512;-74
2023/05/27 10:37:02;;;;;;;12.40;5.50;;;;;;;19.96;45.54;100783.50;5045132;28;20608;-75
2023/05/27 10:39:28;;;;;;;12.80;4.53;;;;;;;19.96;45.20;100780.72;5043692;28;20047;-78
2023/05/27 10:41:55;;;;;;;18.70;4.72;;;;;;;20.07;45.63;100778.59;5045570;28;20056;-75
2023/05/27 10:44:47;;;;;;;17.25;5.25;;;;;;;20.16;45.81;100771.25;5044712;28;20033;-75
2023/05/27 10:47:15;;;;;;;21.73;7.22;;;;;;;20.16;46.33;100773.19;5043134;28;20052;-74
2023/05/27 10:49:45;;;;;;;19.60;5.97;;;;;;;20.24;44.61;100774.47;5043837;28;20047;-71
2023/05/27 10:52:13;;;;;;;161.68;21.60;;;;;;;20.34;45.93;100763.16;5044556;28;20044;-72
2023/05/27 10:54:46;;;;;;;39.45;7.68;;;;;;;20.40;45.28;100769.44;5044829;28;20159;-72
2023/05/27 10:57:12;;;;;;;20.30;5.38;;;;;;;20.45;46.60;100765.72;5044355;28;20056;-72
2023/05/27 10:59:57;;;;;;;14.15;5.78;;;;;;;20.59;45.73;100758.25;5044193;28;21264;-74
2023/05/27 11:02:23;;;;;;;16.63;6.30;;;;;;;20.65;45.73;100747.88;5044317;28;20673;-73
2023/05/27 11:04:48;;;;;;;12.18;5.10;;;;;;;20.77;45.21;100755.66;5044210;28;20037;-72
2023/05/27 11:07:21;;;;;;;11.27;5.60;;;;;;;20.75;46.66;100747.66;5044270;28;20091;-73
2023/05/27 11:09:48;;;;;;;12.88;5.28;;;;;;;20.87;45.87;100740.75;5043752;28;20556;-72
2023/05/27 11:12:17;;;;;;;14.82;6.18;;;;;;;20.98;44.34;100738.59;5043859;28;21214;-74